Time;durP1;ratioP1;P1;durP2;ratioP2;P2;SDS_P1;SDS_P2;PMS_P1;PMS_P2;Temp;Humidity;BMP_temperature;BMP_pressure;BME280_temperature;BME280_humidity;BME280_pressure;Samples;Min_cycle;Max_cycle;Signal;HPM_P1;HPM_P2
2022/01/10 00:00:22;;;;;;;6.63;2.10;;;;;;;;;;4936885;29;20209;-77
2022/01/10 00:02:51;;;;;;;2.70;1.70;;;;;;;;;;4938726;28;20185;-77
2022/01/10 00:05:16;;;;;;;3.97;1.57;;;;;;;;;;4941109;28;20174;-77
2022/01/10 00:07:42;;;;;;;6.70;2.23;;;;;;;;;;4938773;28;20183;-77
2022/01/10 00:10:08;;;;;;;7.70;2.00;;;;;;;;;;4942813;29;20184;-77
2022/01/10 00:12:33;;;;;;;6.23;2.30;;;;;;;;;;4956216;28;20189;-77
2022/01/10 00:14:58;;;;;;;3.90;2.07;;;;;;;;;;4936629;29;20188;-77
2022/01/10 00:17:23;;;;;;;3.10;1.77;;;;;;;;;;4934759;29;20198;-77
2022/01/10 00:19:48;;;;;;;2.70;1.97;;;;;;;;;;4935115;28;20218;-77
2022/01/10 00:22:13;;;;;;;5.40;2.13;;;;;;;;;;4940097;29;20258;-77
2022/01/10 00:24:39;;;;;;;6.77;2.63;;;;;;;;;;4937295;28;20205;-77
2022/01/10 00:27:04;;;;;;;6.83;3.60;;;;;;;;;;4942484;29;20186;-77
2022/01/10 00:29:29;;;;;;;4.17;2.03;;;;;;;;;;4931582;28;20190;-77
2022/01/10 00:31:57;;;;;;;3.07;1.60;;;;;;;;;;4934033;29;20264;-77
2022/01/10 00:34:22;;;;;;;7.40;2.43;;;;;;;;;;4936298;29;20221;-77
2022/01/10 00:36:47;;;;;;;3.77;1.60;;;;;;;;;;4954857;28;20192;-77
2022/01/10 00:39:12;;;;;;;7.30;3.17;;;;;;;;;;4931976;29;20321;-77
2022/01/10 00:41:37;;;;;;;5.20;1.73;;;;;;;;;;4935686;29;20226;-77
2022/01/10 00:44:04;;;;;;;6.27;2.60;;;;;;;;;;4933236;29;20189;-77
2022/01/10 00:46:29;;;;;;;3.70;2.30;;;;;;;;;;4931461;29;20246;-77
2022/01/10 00:48:55;;;;;;;5.20;2.40;;;;;;;;;;4933790;29;20361;-77
2022/01/10 00:51:20;;;;;;;8.43;3.53;;;;;;;;;;4929592;29;20189;-77
2022/01/10 00:53:48;;;;;;;3.47;2.70;;;;;;;;;;4932421;29;20225;-77
2022/01/10 00:56:13;;;;;;;4.90;2.10;;;;;;;;;;4935281;29;20262;-77
2022/01/10 00:58:38;;;;;;;4.20;2.47;;;;;;;;;;4933451;29;20267;-77
2022/01/10 01:01:04;;;;;;;2.90;1.93;;;;;;;;;;4934318;29;20202;-77
2022/01/10 01:03:29;;;;;;;8.30;3.00;;;;;;;;;;4932397;29;20265;-77
2022/01/10 01:05:54;;;;;;;2.90;2.60;;;;;;;;;;4930775;29;20182;-76
2022/01/10 01:08:20;;;;;;;16.03;4.10;;;;;;;;;;4933571;28;20190;-77
2022/01/10 01:13:36;;;;;;;6.97;3.40;;;;;;;;;;4934347;29;20198;-77
2022/01/10 01:24:06;;;;;;;6.00;3.50;;;;;;;;;;4932490;29;20193;-77
2022/01/10 01:26:34;;;;;;;11.47;3.87;;;;;;;;;;4950614;28;20189;-77
2022/01/10 01:28:59;;;;;;;9.27;4.10;;;;;;;;;;4947218;28;20213;-77
2022/01/10 01:31:24;;;;;;;7.80;3.90;;;;;;;;;;4932081;29;20225;-77
2022/01/10 01:33:49;;;;;;;5.27;3.50;;;;;;;;;;4947783;28;20233;-77
2022/01/10 01:36:22;;;;;;;7.43;3.53;;;;;;;;;;4932684;29;20193;-77
2022/01/10 01:38:48;;;;;;;4.87;3.33;;;;;;;;;;4931503;29;20293;-77
2022/01/10 01:43:45;;;;;;;7.93;3.20;;;;;;;;;;4930459;29;20190;-77
2022/01/10 01:46:10;;;;;;;6.67;4.73;;;;;;;;;;4930624;29;20185;-77
2022/01/10 01:48:35;;;;;;;6.23;3.37;;;;;;;;;;4930384;29;20190;-77
2022/01/10 01:51:01;;;;;;;6.00;3.00;;;;;;;;;;4934267;29;20182;-77
2022/01/10 01:53:26;;;;;;;8.70;3.30;;;;;;;;;;4931218;29;20338;-77
2022/01/10 01:55:51;;;;;;;8.10;3.90;;;;;;;;;;4932332;29;20192;-77
2022/01/10 01:58:17;;;;;;;5.47;2.93;;;;;;;;;;4934739;29;20189;-77
2022/01/10 02:00:42;;;;;;;7.23;3.90;;;;;;;;;;4934102;29;20204;-77
2022/01/10 02:03:07;;;;;;;5.90;2.83;;;;;;;;;;4932146;29;20205;-77
2022/01/10 02:05:32;;;;;;;8.00;3.23;;;;;;;;;;4933621;29;20249;-77
2022/01/10 02:07:57;;;;;;;4.03;3.00;;;;;;;;;;4930970;29;20190;-77
2022/01/10 02:10:23;;;;;;;13.03;4.07;;;;;;;;;;4930468;29;20249;-77
2022/01/10 02:12:50;;;;;;;6.53;2.93;;;;;;;;;;4929601;29;20189;-77
2022/01/10 02:15:32;;;;;;;8.43;3.30;;;;;;;;;;4929649;29;20178;-77
2022/01/10 02:18:00;;;;;;;6.17;3.00;;;;;;;;;;4942124;28;20186;-77
2022/01/10 02:20:27;;;;;;;4.37;3.03;;;;;;;;;;4929375;29;20220;-77
2022/01/10 02:22:52;;;;;;;5.57;3.00;;;;;;;;;;4930989;29;20186;-76
2022/01/10 02:25:17;;;;;;;5.97;3.00;;;;;;;;;;4930890;29;20184;-77
2022/01/10 02:27:45;;;;;;;8.27;3.93;;;;;;;;;;4932583;29;20213;-76
2022/01/10 02:30:11;;;;;;;4.63;3.53;;;;;;;;;;4930613;29;20253;-76
2022/01/10 02:32:36;;;;;;;4.80;3.40;;;;;;;;;;4933329;29;20269;-76
2022/01/10 02:35:01;;;;;;;9.83;4.70;;;;;;;;;;4927971;29;20202;-77
2022/01/10 02:37:33;;;;;;;7.53;4.60;;;;;;;;;;4934199;29;20217;-76
2022/01/10 02:40:02;;;;;;;5.40;3.27;;;;;;;;;;4937141;28;20234;-76
2022/01/10 02:42:27;;;;;;;5.70;2.93;;;;;;;;;;4945733;28;20185;-76
2022/01/10 02:44:52;;;;;;;6.40;3.30;;;;;;;;;;4930574;29;20185;-76
2022/01/10 02:47:17;;;;;;;5.97;3.03;;;;;;;;;;4933371;28;20201;-76
2022/01/10 02:49:42;;;;;;;4.37;3.20;;;;;;;;;;4953886;28;20177;-76
2022/01/10 02:52:08;;;;;;;6.50;3.57;;;;;;;;;;4954049;28;20422;-76
2022/01/10 02:54:33;;;;;;;4.53;3.03;;;;;;;;;;4960182;28;20181;-77
2022/01/10 02:56:58;;;;;;;7.13;3.40;;;;;;;;;;4945392;29;20181;-77
2022/01/10 02:59:24;;;;;;;6.97;3.47;;;;;;;;;;4942453;29;20231;-76
2022/01/10 03:01:50;;;;;;;7.10;4.33;;;;;;;;;;4941688;29;20192;-76
2022/01/10 03:04:15;;;;;;;8.70;4.83;;;;;;;;;;4936530;28;20189;-77
2022/01/10 03:06:41;;;;;;;6.77;4.03;;;;;;;;;;4941721;29;20185;-76
2022/01/10 03:09:06;;;;;;;7.97;4.00;;;;;;;;;;4940157;29;20260;-76
2022/01/10 03:11:32;;;;;;;4.40;3.83;;;;;;;;;;4955741;28;20181;-76
2022/01/10 03:13:58;;;;;;;6.93;4.00;;;;;;;;;;4957082;28;20244;-76
2022/01/10 03:16:24;;;;;;;5.53;3.97;;;;;;;;;;4930843;28;20280;-76
2022/01/10 03:18:49;;;;;;;10.87;4.70;;;;;;;;;;4936763;29;20181;-76
2022/01/10 03:21:16;;;;;;;5.30;3.80;;;;;;;;;;4935460;28;20174;-77
2022/01/10 03:23:41;;;;;;;5.37;3.47;;;;;;;;;;4954626;28;20174;-76
2022/01/10 03:26:07;;;;;;;4.80;3.57;;;;;;;;;;4954758;28;20178;-77
2022/01/10 03:28:32;;;;;;;6.50;3.40;;;;;;;;;;4959808;28;20201;-76
2022/01/10 03:30:57;;;;;;;6.03;3.43;;;;;;;;;;4955148;28;20286;-76
2022/01/10 03:33:22;;;;;;;5.80;3.57;;;;;;;;;;4941699;29;20213;-77
2022/01/10 03:35:49;;;;;;;10.33;3.70;;;;;;;;;;4937662;29;20209;-77
2022/01/10 03:38:15;;;;;;;5.10;3.03;;;;;;;;;;4931440;29;20240;-76
2022/01/10 03:40:40;;;;;;;8.57;3.80;;;;;;;;;;4935505;29;20194;-76
2022/01/10 03:43:05;;;;;;;5.73;3.50;;;;;;;;;;4942303;29;20388;-76
2022/01/10 03:45:30;;;;;;;6.83;3.17;;;;;;;;;;4942629;28;20240;-77
2022/01/10 03:47:55;;;;;;;5.57;3.23;;;;;;;;;;4934259;29;20225;-76
2022/01/10 03:50:21;;;;;;;8.80;3.40;;;;;;;;;;4938821;28;20233;-76
2022/01/10 03:52:46;;;;;;;7.33;3.27;;;;;;;;;;4940924;28;20192;-76
2022/01/10 03:55:11;;;;;;;4.83;3.03;;;;;;;;;;4930293;29;20186;-76
2022/01/10 03:57:36;;;;;;;4.73;3.33;;;;;;;;;;4928380;28;20695;-76
2022/01/10 04:00:03;;;;;;;6.23;2.80;;;;;;;;;;4935269;29;20213;-76
2022/01/10 04:02:31;;;;;;;7.70;3.30;;;;;;;;;;4936266;29;20205;-76
2022/01/10 04:04:56;;;;;;;5.63;3.30;;;;;;;;;;4937557;29;20185;-76
2022/01/10 04:07:21;;;;;;;3.70;2.90;;;;;;;;;;4936364;29;20178;-76
2022/01/10 04:09:47;;;;;;;3.83;2.90;;;;;;;;;;4935488;29;20179;-77
2022/01/10 04:12:12;;;;;;;3.67;3.20;;;;;;;;;;4937818;28;20545;-76
2022/01/10 04:14:38;;;;;;;4.03;3.13;;;;;;;;;;4934124;29;20231;-76
2022/01/10 04:17:03;;;;;;;6.83;3.00;;;;;;;;;;4936442;28;20186;-76
2022/01/10 04:19:28;;;;;;;10.53;3.00;;;;;;;;;;4932787;29;20253;-76
2022/01/10 04:21:53;;;;;;;4.93;3.10;;;;;;;;;;4937412;29;20277;-76
2022/01/10 04:24:18;;;;;;;6.23;3.00;;;;;;;;;;4938092;28;20178;-77
2022/01/10 04:26:44;;;;;;;4.17;2.80;;;;;;;;;;4932839;29;20182;-77
2022/01/10 04:29:09;;;;;;;4.53;2.80;;;;;;;;;;4930839;29;20177;-76
2022/01/10 04:31:34;;;;;;;5.77;2.83;;;;;;;;;;4934476;29;20187;-77
2022/01/10 04:33:59;;;;;;;8.87;3.17;;;;;;;;;;4939821;29;20257;-76
2022/01/10 04:36:24;;;;;;;4.47;2.97;;;;;;;;;;4941453;29;20186;-77
2022/01/10 04:38:50;;;;;;;6.73;3.40;;;;;;;;;;4937284;29;20320;-77
2022/01/10 04:41:15;;;;;;;8.87;3.33;;;;;;;;;;4931758;29;20173;-77
2022/01/10 04:43:40;;;;;;;5.97;3.10;;;;;;;;;;4947466;28;20179;-77
2022/01/10 04:46:05;;;;;;;5.67;2.60;;;;;;;;;;4936179;29;20313;-76
2022/01/10 04:48:30;;;;;;;6.17;2.57;;;;;;;;;;4932336;29;20182;-76
2022/01/10 04:53:21;;;;;;;3.70;2.40;;;;;;;;;;4934311;29;20197;-77
2022/01/10 04:55:46;;;;;;;7.57;2.83;;;;;;;;;;4948613;28;20480;-77
2022/01/10 04:58:11;;;;;;;5.93;3.03;;;;;;;;;;4933334;29;20327;-77
2022/01/10 05:00:37;;;;;;;6.40;3.20;;;;;;;;;;4932817;29;20198;-77
2022/01/10 05:03:02;;;;;;;4.57;2.60;;;;;;;;;;4933059;29;20174;-76
2022/01/10 05:05:27;;;;;;;8.43;3.03;;;;;;;;;;4934506;29;20186;-76
2022/01/10 05:07:53;;;;;;;4.93;4.43;;;;;;;;;;4930341;29;20198;-76
2022/01/10 05:10:18;;;;;;;8.40;4.03;;;;;;;;;;4930035;29;20220;-77
2022/01/10 05:12:43;;;;;;;10.13;3.43;;;;;;;;;;4932007;29;20647;-77
2022/01/10 05:15:09;;;;;;;4.80;2.80;;;;;;;;;;4934164;29;20254;-77
2022/01/10 05:17:34;;;;;;;7.57;3.67;;;;;;;;;;4932209;29;20269;-77
2022/01/10 05:19:59;;;;;;;5.43;3.13;;;;;;;;;;4947386;28;20198;-77
2022/01/10 05:22:24;;;;;;;7.93;3.13;;;;;;;;;;4933022;29;20227;-77
2022/01/10 05:24:49;;;;;;;7.67;3.20;;;;;;;;;;4933662;29;20261;-77
2022/01/10 05:27:15;;;;;;;7.53;3.00;;;;;;;;;;4934264;29;20233;-76
2022/01/10 05:29:40;;;;;;;8.57;3.20;;;;;;;;;;4943442;28;20332;-77
2022/01/10 05:32:05;;;;;;;4.33;3.10;;;;;;;;;;4933131;29;20184;-77
2022/01/10 05:34:30;;;;;;;6.23;3.10;;;;;;;;;;4935592;29;20201;-77
2022/01/10 05:36:56;;;;;;;6.53;3.30;;;;;;;;;;4932755;29;20261;-77
2022/01/10 05:39:21;;;;;;;8.57;3.30;;;;;;;;;;4931563;29;20238;-77
2022/01/10 05:41:46;;;;;;;7.50;3.50;;;;;;;;;;4932487;29;20174;-76
2022/01/10 05:44:13;;;;;;;4.10;3.33;;;;;;;;;;4925472;29;20261;-76
2022/01/10 05:46:38;;;;;;;5.03;2.87;;;;;;;;;;4945138;28;20182;-76
2022/01/10 05:49:04;;;;;;;4.63;2.80;;;;;;;;;;4934162;29;20272;-76
2022/01/10 05:51:34;;;;;;;6.03;2.90;;;;;;;;;;4931190;29;20208;-76
2022/01/10 05:54:00;;;;;;;8.50;2.73;;;;;;;;;;4931635;29;20246;-75
2022/01/10 05:56:25;;;;;;;4.53;2.90;;;;;;;;;;4945820;28;20261;-76
2022/01/10 05:58:51;;;;;;;3.73;2.40;;;;;;;;;;4946389;28;20189;-76
2022/01/10 06:01:16;;;;;;;5.63;2.20;;;;;;;;;;4940232;28;20217;-77
2022/01/10 06:03:41;;;;;;;4.47;2.67;;;;;;;;;;4928231;29;20181;-76
2022/01/10 06:06:06;;;;;;;6.87;3.20;;;;;;;;;;4928470;29;20261;-77
2022/01/10 06:08:32;;;;;;;3.40;3.10;;;;;;;;;;4931062;29;20182;-76
2022/01/10 06:10:59;;;;;;;5.97;3.13;;;;;;;;;;4947650;28;20221;-76
2022/01/10 06:13:24;;;;;;;6.17;2.90;;;;;;;;;;4932006;29;20477;-77
2022/01/10 06:15:51;;;;;;;7.67;2.90;;;;;;;;;;4932807;29;20178;-77
2022/01/10 06:18:16;;;;;;;4.30;3.13;;;;;;;;;;4934816;29;20282;-77
2022/01/10 06:20:42;;;;;;;5.23;2.60;;;;;;;;;;4945691;29;20382;-77
2022/01/10 06:23:09;;;;;;;5.87;3.33;;;;;;;;;;4934563;29;20271;-77
2022/01/10 06:25:34;;;;;;;5.03;3.23;;;;;;;;;;4928932;29;20181;-76
2022/01/10 06:27:59;;;;;;;3.70;2.63;;;;;;;;;;4934806;29;20185;-76
2022/01/10 06:30:25;;;;;;;3.33;2.87;;;;;;;;;;4945385;28;20273;-77
2022/01/10 06:32:51;;;;;;;7.17;3.40;;;;;;;;;;4930353;29;20333;-76
2022/01/10 06:35:16;;;;;;;6.00;3.07;;;;;;;;;;4929706;29;20193;-76
2022/01/10 06:37:41;;;;;;;4.67;3.47;;;;;;;;;;4936430;29;20222;-76
2022/01/10 06:40:06;;;;;;;5.50;3.63;;;;;;;;;;4933738;29;20237;-76
2022/01/10 06:42:33;;;;;;;6.77;3.20;;;;;;;;;;4933814;29;20206;-76
2022/01/10 06:44:58;;;;;;;7.53;3.90;;;;;;;;;;4932455;29;20181;-76
2022/01/10 06:47:23;;;;;;;11.70;6.87;;;;;;;;;;4928067;29;20182;-77
2022/01/10 06:49:49;;;;;;;53.73;29.37;;;;;;;;;;4926168;29;20186;-77
2022/01/10 06:52:14;;;;;;;19.13;9.40;;;;;;;;;;4929684;29;20256;-76
2022/01/10 06:54:39;;;;;;;9.93;5.53;;;;;;;;;;4933903;29;20178;-76
2022/01/10 06:57:05;;;;;;;7.43;4.13;;;;;;;;;;4934301;29;20185;-77
2022/01/10 06:59:30;;;;;;;5.27;3.90;;;;;;;;;;4926250;28;20202;-77
2022/01/10 07:01:58;;;;;;;7.80;4.23;;;;;;;;;;4933269;29;20179;-77
2022/01/10 07:04:24;;;;;;;12.93;4.03;;;;;;;;;;4929856;29;20210;-77
2022/01/10 07:06:49;;;;;;;8.97;4.60;;;;;;;;;;4937009;29;20179;-77
2022/01/10 07:09:15;;;;;;;10.70;6.63;;;;;;;;;;4936494;28;20322;-76
2022/01/10 07:11:40;;;;;;;9.77;5.40;;;;;;;;;;4937476;28;20181;-76
2022/01/10 07:14:05;;;;;;;9.30;5.07;;;;;;;;;;4948069;28;20217;-76
2022/01/10 07:16:31;;;;;;;6.97;4.43;;;;;;;;;;4923549;29;20206;-77
2022/01/10 07:18:56;;;;;;;7.80;5.33;;;;;;;;;;4927638;29;20190;-76
2022/01/10 07:21:21;;;;;;;6.17;3.50;;;;;;;;;;4924093;29;20516;-76
2022/01/10 07:23:48;;;;;;;5.33;4.00;;;;;;;;;;4925291;29;20182;-76
2022/01/10 07:26:13;;;;;;;7.73;3.90;;;;;;;;;;4925393;29;20200;-76
2022/01/10 07:28:38;;;;;;;7.60;4.17;;;;;;;;;;4926657;29;20244;-76
2022/01/10 07:31:03;;;;;;;5.23;3.30;;;;;;;;;;4923859;29;20375;-76
2022/01/10 07:33:29;;;;;;;9.60;3.27;;;;;;;;;;4943018;28;20206;-76
2022/01/10 07:35:54;;;;;;;4.90;3.27;;;;;;;;;;4932236;29;20499;-77
2022/01/10 07:38:19;;;;;;;7.57;4.13;;;;;;;;;;4932526;29;20261;-76
2022/01/10 07:40:45;;;;;;;7.17;4.03;;;;;;;;;;4944502;28;20217;-76
2022/01/10 07:43:10;;;;;;;8.67;4.40;;;;;;;;;;4946414;28;20178;-76
2022/01/10 07:45:35;;;;;;;7.87;4.43;;;;;;;;;;4943913;28;20177;-76
2022/01/10 07:48:00;;;;;;;7.77;4.20;;;;;;;;;;4933452;29;20489;-76
2022/01/10 07:50:26;;;;;;;8.30;3.23;;;;;;;;;;4945981;29;20185;-77
2022/01/10 07:52:51;;;;;;;10.60;5.50;;;;;;;;;;4934198;29;20396;-77
2022/01/10 07:55:16;;;;;;;6.57;4.30;;;;;;;;;;4938004;29;20238;-76
2022/01/10 07:57:41;;;;;;;6.13;3.73;;;;;;;;;;4948476;28;20193;-77
2022/01/10 08:00:07;;;;;;;9.20;4.40;;;;;;;;;;4931777;29;20201;-77
2022/01/10 08:02:32;;;;;;;3.50;2.80;;;;;;;;;;4938701;28;20174;-77
2022/01/10 08:04:57;;;;;;;7.20;3.97;;;;;;;;;;4937737;29;20277;-76
2022/01/10 08:07:23;;;;;;;6.10;3.60;;;;;;;;;;4937067;29;20179;-76
2022/01/10 08:09:49;;;;;;;7.63;4.40;;;;;;;;;;4937216;29;20185;-76
2022/01/10 08:12:14;;;;;;;8.47;4.23;;;;;;;;;;4937264;29;20181;-77
2022/01/10 08:14:40;;;;;;;8.03;4.10;;;;;;;;;;4936404;29;20193;-77
2022/01/10 08:17:05;;;;;;;8.97;4.90;;;;;;;;;;4938424;29;20174;-77
2022/01/10 08:19:33;;;;;;;6.00;4.10;;;;;;;;;;4934655;29;20199;-76
2022/01/10 08:21:59;;;;;;;6.33;4.20;;;;;;;;;;4942150;28;20174;-77
2022/01/10 08:24:24;;;;;;;6.37;4.97;;;;;;;;;;4930449;29;20207;-77
2022/01/10 08:26:50;;;;;;;7.97;4.13;;;;;;;;;;4934259;28;20182;-77
2022/01/10 08:29:16;;;;;;;10.37;4.77;;;;;;;;;;4936548;28;20189;-76
2022/01/10 08:31:41;;;;;;;11.47;5.40;;;;;;;;;;4936836;29;20186;-76
2022/01/10 08:34:07;;;;;;;9.10;4.70;;;;;;;;;;4937395;28;20194;-76
2022/01/10 08:36:32;;;;;;;10.43;4.77;;;;;;;;;;4934240;28;20261;-76
2022/01/10 08:38:58;;;;;;;9.30;4.83;;;;;;;;;;4931449;29;20226;-76
2022/01/10 08:41:23;;;;;;;7.27;5.17;;;;;;;;;;4937468;29;20217;-77
2022/01/10 08:43:48;;;;;;;8.63;5.73;;;;;;;;;;4932768;29;20177;-77
2022/01/10 08:46:14;;;;;;;9.13;4.97;;;;;;;;;;4934276;28;20179;-76
2022/01/10 08:48:40;;;;;;;11.37;6.20;;;;;;;;;;4941123;28;20182;-76
2022/01/10 08:51:05;;;;;;;10.50;6.20;;;;;;;;;;4937269;28;20194;-76
2022/01/10 08:53:30;;;;;;;6.53;5.10;;;;;;;;;;4932476;29;20240;-77
2022/01/10 08:55:56;;;;;;;10.13;4.97;;;;;;;;;;4929845;29;20178;-77
2022/01/10 08:58:21;;;;;;;15.27;6.93;;;;;;;;;;4931707;29;20194;-77
2022/01/10 09:00:46;;;;;;;17.13;6.37;;;;;;;;;;4931858;29;20206;-77
2022/01/10 09:03:12;;;;;;;13.87;7.23;;;;;;;;;;4927996;29;20210;-76
2022/01/10 09:05:37;;;;;;;12.40;7.60;;;;;;;;;;4928938;29;20175;-76
2022/01/10 09:08:03;;;;;;;13.07;6.87;;;;;;;;;;4935336;29;20185;-76
2022/01/10 09:10:28;;;;;;;14.63;7.00;;;;;;;;;;4932306;29;20182;-77
2022/01/10 09:12:53;;;;;;;10.87;6.70;;;;;;;;;;4930395;29;20190;-76
2022/01/10 09:15:19;;;;;;;13.10;6.33;;;;;;;;;;4929113;29;20186;-76
2022/01/10 09:17:44;;;;;;;11.07;6.70;;;;;;;;;;4930651;29;20213;-76
2022/01/10 09:20:09;;;;;;;15.67;8.00;;;;;;;;;;4933021;29;20198;-76
2022/01/10 09:22:35;;;;;;;13.40;6.70;;;;;;;;;;4928103;29;20179;-76
2022/01/10 09:25:00;;;;;;;11.50;6.73;;;;;;;;;;4928803;29;20178;-76
2022/01/10 09:27:25;;;;;;;15.17;7.07;;;;;;;;;;4937001;29;20190;-76
2022/01/10 09:29:51;;;;;;;14.57;7.67;;;;;;;;;;4934139;29;20182;-76
2022/01/10 09:32:16;;;;;;;11.60;7.73;;;;;;;;;;4932548;29;20182;-76
2022/01/10 09:34:41;;;;;;;13.37;6.07;;;;;;;;;;4929643;29;20228;-76
2022/01/10 09:37:06;;;;;;;12.80;6.97;;;;;;;;;;4930647;29;20186;-76
2022/01/10 09:39:31;;;;;;;10.93;6.77;;;;;;;;;;4929751;29;20221;-76
2022/01/10 09:41:57;;;;;;;14.37;6.23;;;;;;;;;;4928991;29;20257;-76
2022/01/10 09:44:23;;;;;;;14.43;6.83;;;;;;;;;;4932373;29;20210;-76
2022/01/10 09:46:48;;;;;;;14.13;6.77;;;;;;;;;;4937808;28;20206;-76
2022/01/10 09:49:14;;;;;;;10.80;6.13;;;;;;;;;;4934959;29;20249;-76
2022/01/10 09:51:39;;;;;;;9.53;6.07;;;;;;;;;;4931271;29;20182;-76
2022/01/10 09:54:05;;;;;;;12.23;6.40;;;;;;;;;;4933239;29;20188;-76
2022/01/10 09:56:30;;;;;;;9.37;5.97;;;;;;;;;;4932100;29;20250;-76
2022/01/10 09:58:57;;;;;;;14.70;6.93;;;;;;;;;;4931529;29;20193;-76
2022/01/10 10:01:24;;;;;;;12.00;6.47;;;;;;;;;;4929798;29;20443;-76
2022/01/10 10:03:50;;;;;;;18.47;6.60;;;;;;;;;;4931871;29;20180;-76
2022/01/10 10:06:16;;;;;;;10.93;4.77;;;;;;;;;;4931645;29;20206;-76
2022/01/10 10:08:41;;;;;;;11.37;5.53;;;;;;;;;;4930144;29;20214;-76
2022/01/10 10:11:08;;;;;;;8.40;4.63;;;;;;;;;;4932031;29;20187;-77
2022/01/10 10:13:44;;;;;;;13.70;5.77;;;;;;;;;;4931503;29;20214;-76
2022/01/10 10:16:14;;;;;;;13.27;6.17;;;;;;;;;;4930343;29;20176;-76
2022/01/10 10:18:43;;;;;;;16.60;5.80;;;;;;;;;;4931961;29;20246;-76
2022/01/10 10:21:13;;;;;;;11.07;4.90;;;;;;;;;;4931377;29;23380;-76
2022/01/10 10:23:40;;;;;;;7.73;5.27;;;;;;;;;;4932686;29;20220;-76
2022/01/10 10:26:06;;;;;;;7.63;4.10;;;;;;;;;;4932263;29;20185;-76
2022/01/10 10:28:32;;;;;;;7.23;4.53;;;;;;;;;;4930202;29;20181;-76
2022/01/10 10:30:58;;;;;;;11.10;5.40;;;;;;;;;;4931845;29;20193;-76
2022/01/10 10:33:25;;;;;;;9.00;6.03;;;;;;;;;;4929716;29;20213;-76
2022/01/10 10:35:56;;;;;;;7.60;5.17;;;;;;;;;;4930423;29;20224;-76
2022/01/10 10:38:21;;;;;;;13.07;5.63;;;;;;;;;;4931397;29;20229;-76
2022/01/10 10:40:46;;;;;;;13.13;6.87;;;;;;;;;;4928968;29;20233;-76
2022/01/10 10:43:11;;;;;;;18.77;10.43;;;;;;;;;;4930615;29;20217;-76
2022/01/10 10:45:37;;;;;;;9.97;5.23;;;;;;;;;;4947185;29;20181;-76
2022/01/10 10:48:06;;;;;;;11.57;5.00;;;;;;;;;;4930247;29;20443;-76
2022/01/10 10:50:34;;;;;;;13.90;6.30;;;;;;;;;;4932149;29;20183;-76
2022/01/10 10:53:03;;;;;;;7.53;5.63;;;;;;;;;;4931628;28;20194;-76
2022/01/10 10:55:28;;;;;;;9.37;5.90;;;;;;;;;;4931725;29;20315;-76
2022/01/10 10:57:53;;;;;;;10.93;7.20;;;;;;;;;;4930890;29;20235;-76
2022/01/10 11:00:19;;;;;;;14.63;5.30;;;;;;;;;;4931669;29;20198;-76
2022/01/10 11:02:44;;;;;;;10.17;5.20;;;;;;;;;;4932631;29;20174;-76
2022/01/10 11:05:11;;;;;;;10.40;5.77;;;;;;;;;;4933288;29;20182;-79
2022/01/10 11:07:37;;;;;;;10.30;5.50;;;;;;;;;;4932173;29;20182;-78
2022/01/10 11:10:06;;;;;;;9.43;6.23;;;;;;;;;;4935072;29;20266;-78
2022/01/10 11:12:33;;;;;;;11.50;6.27;;;;;;;;;;4950875;28;20293;-78
2022/01/10 11:14:59;;;;;;;12.17;6.93;;;;;;;;;;4944579;28;20205;-78
2022/01/10 11:17:25;;;;;;;14.17;6.43;;;;;;;;;;4935848;29;20197;-78
2022/01/10 11:20:25;;;;;;;10.73;6.07;;;;;;;;;;4935664;29;20206;-78
2022/01/10 11:22:54;;;;;;;15.10;7.77;;;;;;;;;;4895801;29;20214;-77
2022/01/10 11:25:20;;;;;;;15.33;6.07;;;;;;;;;;4877792;29;20326;-78
2022/01/10 11:27:45;;;;;;;14.03;6.20;;;;;;;;;;4880690;29;20223;-78
2022/01/10 11:30:16;;;;;;;15.03;7.20;;;;;;;;;;4880515;29;20222;-78
2022/01/10 11:32:57;;;;;;;9.03;6.40;;;;;;;;;;4879659;29;20210;-78
2022/01/10 11:35:26;;;;;;;9.90;6.70;;;;;;;;;;4894793;29;20192;-77
2022/01/10 11:37:51;;;;;;;11.10;6.57;;;;;;;;;;4877753;29;20264;-78
2022/01/10 11:40:17;;;;;;;11.50;6.90;;;;;;;;;;4877327;29;20215;-78
2022/01/10 11:42:44;;;;;;;13.17;7.73;;;;;;;;;;4880681;29;20183;-77
2022/01/10 11:45:10;;;;;;;11.73;7.53;;;;;;;;;;4879892;29;20175;-78
2022/01/10 11:48:06;;;;;;;14.73;7.77;;;;;;;;;;4878870;29;20206;-78
2022/01/10 11:50:31;;;;;;;11.47;7.17;;;;;;;;;;4890446;29;20194;-78
2022/01/10 11:52:57;;;;;;;24.53;19.10;;;;;;;;;;4878893;29;20187;-78
2022/01/10 11:55:45;;;;;;;15.87;8.63;;;;;;;;;;4878648;29;20202;-78
2022/01/10 11:58:15;;;;;;;14.50;8.40;;;;;;;;;;4937475;28;20979;-78
2022/01/10 12:00:40;;;;;;;13.30;8.00;;;;;;;;;;4933624;29;20205;-78
2022/01/10 12:03:05;;;;;;;11.77;6.73;;;;;;;;;;4933634;29;20174;-78
2022/01/10 12:05:31;;;;;;;7.43;5.40;;;;;;;;;;4934509;29;20170;-78
2022/01/10 12:07:56;;;;;;;13.70;9.27;;;;;;;;;;4933713;29;20185;-78
2022/01/10 12:10:21;;;;;;;11.10;8.30;;;;;;;;;;4934370;29;20254;-78
2022/01/10 12:12:50;;;;;;;12.93;6.93;;;;;;;;;;4935826;29;20193;-78
2022/01/10 12:15:15;;;;;;;10.47;5.53;;;;;;;;;;4934945;29;20276;-78
2022/01/10 12:17:40;;;;;;;9.37;5.27;;;;;;;;;;4934436;29;20277;-78
2022/01/10 12:20:08;;;;;;;15.00;6.57;;;;;;;;;;4934590;29;20277;-78
2022/01/10 12:22:33;;;;;;;12.67;7.27;;;;;;;;;;4950264;28;20175;-77
2022/01/10 12:24:58;;;;;;;15.27;7.63;;;;;;;;;;4931519;29;20249;-78
2022/01/10 12:27:23;;;;;;;14.77;5.67;;;;;;;;;;4936256;29;20188;-78
2022/01/10 12:29:49;;;;;;;8.50;5.50;;;;;;;;;;4936444;29;20186;-78
2022/01/10 12:32:14;;;;;;;8.40;5.07;;;;;;;;;;4934258;28;20185;-78
2022/01/10 12:34:41;;;;;;;11.10;6.23;;;;;;;;;;4930911;29;20269;-78
2022/01/10 12:37:06;;;;;;;13.87;8.40;;;;;;;;;;4933848;29;20174;-78
2022/01/10 12:39:35;;;;;;;13.77;6.97;;;;;;;;;;4932748;29;20237;-78
2022/01/10 12:42:00;;;;;;;10.73;6.37;;;;;;;;;;4934034;29;20237;-78
2022/01/10 12:44:26;;;;;;;6.87;5.40;;;;;;;;;;4933162;29;20269;-78
2022/01/10 12:46:51;;;;;;;11.83;6.03;;;;;;;;;;4933708;29;20186;-78
2022/01/10 12:49:17;;;;;;;11.60;7.30;;;;;;;;;;4933298;29;20269;-78
2022/01/10 12:51:46;;;;;;;9.43;4.90;;;;;;;;;;4935054;29;20178;-78
2022/01/10 12:54:13;;;;;;;11.33;5.60;;;;;;;;;;4931452;29;20265;-78
2022/01/10 12:56:39;;;;;;;11.07;6.83;;;;;;;;;;4934177;29;20311;-78
2022/01/10 12:59:04;;;;;;;9.37;5.00;;;;;;;;;;4932292;29;20174;-78
2022/01/10 13:01:29;;;;;;;10.10;6.10;;;;;;;;;;4932133;29;20238;-78
2022/01/10 13:03:56;;;;;;;10.50;6.20;;;;;;;;;;4933565;29;20268;-78
2022/01/10 13:06:22;;;;;;;9.63;7.27;;;;;;;;;;4927371;29;20187;-79
2022/01/10 13:08:47;;;;;;;11.53;6.27;;;;;;;;;;4934032;29;20186;-79
2022/01/10 13:11:18;;;;;;;9.60;6.13;;;;;;;;;;4933736;29;20182;-78
2022/01/10 13:13:48;;;;;;;11.87;6.70;;;;;;;;;;4940436;28;20459;-78
2022/01/10 13:16:23;;;;;;;7.67;6.30;;;;;;;;;;4936229;29;20233;-78
2022/01/10 13:18:55;;;;;;;9.07;5.23;;;;;;;;;;4935734;29;20178;-78
2022/01/10 13:21:37;;;;;;;10.77;7.00;;;;;;;;;;4933987;29;20197;-78
2022/01/10 13:24:12;;;;;;;10.10;5.83;;;;;;;;;;4948314;28;20185;-78
2022/01/10 13:26:52;;;;;;;14.70;5.63;;;;;;;;;;4935786;28;20182;-78
2022/01/10 13:29:38;;;;;;;13.07;6.60;;;;;;;;;;4949090;28;20217;-78
2022/01/10 13:32:18;;;;;;;12.33;5.97;;;;;;;;;;4931389;29;20240;-80
2022/01/10 13:34:44;;;;;;;9.90;5.50;;;;;;;;;;4939215;28;20205;-78
2022/01/10 13:37:10;;;;;;;13.47;6.13;;;;;;;;;;4932691;29;20230;-78
2022/01/10 13:39:35;;;;;;;11.40;5.47;;;;;;;;;;4936887;29;20328;-78
2022/01/10 13:42:08;;;;;;;7.73;5.80;;;;;;;;;;4927161;29;20173;-78
2022/01/10 13:44:47;;;;;;;10.80;6.60;;;;;;;;;;4944053;28;20241;-78
2022/01/10 13:47:13;;;;;;;7.97;5.60;;;;;;;;;;4945608;28;20205;-78
2022/01/10 13:49:38;;;;;;;11.13;5.53;;;;;;;;;;4930220;29;20185;-78
2022/01/10 13:52:11;;;;;;;9.23;6.67;;;;;;;;;;4928337;29;20185;-78
2022/01/10 13:54:36;;;;;;;11.00;6.53;;;;;;;;;;4927051;29;20178;-78
2022/01/10 13:57:14;;;;;;;13.97;7.17;;;;;;;;;;4932700;29;20188;-78
2022/01/10 13:59:40;;;;;;;12.33;7.20;;;;;;;;;;4930877;29;20210;-78
2022/01/10 14:02:05;;;;;;;12.93;7.20;;;;;;;;;;4931433;29;20185;-78
2022/01/10 14:04:32;;;;;;;12.20;7.33;;;;;;;;;;4932585;29;20267;-78
2022/01/10 14:06:58;;;;;;;11.30;6.57;;;;;;;;;;4931437;29;20324;-78
2022/01/10 14:09:26;;;;;;;10.77;8.30;;;;;;;;;;4947130;28;20178;-78
2022/01/10 14:11:51;;;;;;;10.67;6.70;;;;;;;;;;4933409;29;20178;-78
2022/01/10 14:14:16;;;;;;;14.43;7.43;;;;;;;;;;4932224;29;20273;-78
2022/01/10 14:16:47;;;;;;;9.13;6.40;;;;;;;;;;4935058;29;20210;-78
2022/01/10 14:19:13;;;;;;;9.83;5.63;;;;;;;;;;4929953;29;20177;-78
2022/01/10 14:21:38;;;;;;;10.23;6.07;;;;;;;;;;4931355;29;20206;-79
2022/01/10 14:24:04;;;;;;;13.40;6.87;;;;;;;;;;4928166;29;20178;-78
2022/01/10 14:26:30;;;;;;;11.43;6.53;;;;;;;;;;4932846;29;20178;-78
2022/01/10 14:28:55;;;;;;;10.03;6.43;;;;;;;;;;4929207;29;20184;-79
2022/01/10 14:31:20;;;;;;;8.70;6.30;;;;;;;;;;4932961;29;20177;-78
2022/01/10 14:33:46;;;;;;;10.10;5.53;;;;;;;;;;4933179;29;20205;-78
2022/01/10 14:36:12;;;;;;;12.77;6.10;;;;;;;;;;4928614;29;20275;-78
2022/01/10 14:38:38;;;;;;;13.97;6.97;;;;;;;;;;4942107;28;20294;-78
2022/01/10 14:41:04;;;;;;;10.97;5.50;;;;;;;;;;4935492;28;20212;-78
2022/01/10 14:43:29;;;;;;;10.67;5.97;;;;;;;;;;4935225;29;20181;-78
2022/01/10 14:45:54;;;;;;;11.33;6.00;;;;;;;;;;4939236;29;20225;-79
2022/01/10 14:48:20;;;;;;;10.97;6.40;;;;;;;;;;4937709;28;20189;-78